createdAt,value
2023-03-14T00:01:27.769Z,99590.41
2023-03-14T00:03:54.573Z,99595.84
2023-03-14T00:06:22.086Z,99601.97
2023-03-14T00:08:48.945Z,99609.13
2023-03-14T00:11:18.646Z,99611.16
2023-03-14T00:13:51.840Z,99623.44
2023-03-14T00:16:18.967Z,99627.69
2023-03-14T00:18:45.734Z,99644.34
2023-03-14T00:21:13.513Z,99643.31
2023-03-14T00:23:42.219Z,99646.00
2023-03-14T00:26:14.687Z,99652.06
2023-03-14T00:28:42.936Z,99654.25
2023-03-14T00:31:12.388Z,99653.44
2023-03-14T00:33:39.334Z,99656.13
2023-03-14T00:36:10.180Z,99657.59
2023-03-14T00:38:37.010Z,99665.16
2023-03-14T00:41:13.007Z,99668.03
2023-03-14T00:43:40.016Z,99670.22
2023-03-14T00:46:07.346Z,99670.66
2023-03-14T00:48:34.726Z,99669.34
2023-03-14T00:51:02.923Z,99678.78
2023-03-14T00:53:29.632Z,99682.66
2023-03-14T00:55:56.461Z,99696.56
2023-03-14T00:58:23.344Z,99689.72
2023-03-14T01:00:50.050Z,99701.97
2023-03-14T01:03:17.030Z,99710.75
2023-03-14T01:05:43.921Z,99714.13
2023-03-14T01:08:10.713Z,99714.84
2023-03-14T01:10:41.854Z,99729.19
2023-03-14T01:13:09.810Z,99733.81
2023-03-14T01:15:37.960Z,99750.59
2023-03-14T01:18:05.088Z,99756.53
2023-03-14T01:20:31.815Z,99763.50
2023-03-14T01:22:58.517Z,99776.13
2023-03-14T01:25:25.422Z,99779.31
2023-03-14T01:27:52.143Z,99781.47
2023-03-14T01:30:18.881Z,99800.84
2023-03-14T01:32:45.741Z,99812.34
2023-03-14T01:35:12.567Z,99812.50
2023-03-14T01:37:39.587Z,99812.44
2023-03-14T01:40:07.229Z,99831.44
2023-03-14T01:42:34.014Z,99833.31
2023-03-14T01:45:02.599Z,99833.53
2023-03-14T01:47:29.669Z,99848.72
2023-03-14T01:50:10.954Z,99854.41
2023-03-14T01:52:53.724Z,99861.38
2023-03-14T01:55:26.048Z,99866.50
2023-03-14T01:57:56.988Z,99875.28
2023-03-14T02:00:24.661Z,99885.84
2023-03-14T02:03:06.600Z,99911.13
2023-03-14T02:05:36.660Z,99918.31
2023-03-14T02:08:07.769Z,99909.69
2023-03-14T02:10:40.185Z,99935.34
2023-03-14T02:13:07.905Z,99928.16
2023-03-14T02:15:35.614Z,99955.91
2023-03-14T02:18:04.121Z,99951.53
2023-03-14T02:20:33.613Z,99964.91
2023-03-14T02:23:01.141Z,99990.50
2023-03-14T02:25:47.220Z,100006.69
2023-03-14T02:28:14.438Z,100019.13
2023-03-14T02:30:41.399Z,100040.53
2023-03-14T02:33:12.242Z,100052.75
2023-03-14T02:36:03.436Z,100058.38
2023-03-14T02:38:37.537Z,100079.28
2023-03-14T02:41:04.792Z,100090.88
2023-03-14T02:43:31.490Z,100111.47
2023-03-14T02:45:58.319Z,100144.28
2023-03-14T02:48:32.378Z,100144.34
2023-03-14T02:51:01.180Z,100128.28
2023-03-14T02:53:32.431Z,100133.69
2023-03-14T02:55:59.693Z,100158.25
2023-03-14T02:58:26.862Z,100175.41
2023-03-14T03:00:54.282Z,100172.59
2023-03-14T03:03:21.210Z,100200.78
2023-03-14T03:05:52.921Z,100202.94
2023-03-14T03:08:21.450Z,100214.72
2023-03-14T03:10:48.904Z,100219.53
2023-03-14T03:13:16.101Z,100235.38
2023-03-14T03:15:43.173Z,100251.38
2023-03-14T03:18:10.310Z,100255.34
2023-03-14T03:20:37.266Z,100250.69
2023-03-14T03:23:04.108Z,100253.28
2023-03-14T03:25:30.879Z,100260.22
2023-03-14T03:27:58.263Z,100278.69
2023-03-14T03:30:25.040Z,100292.72
2023-03-14T03:32:51.857Z,100290.44
2023-03-14T03:35:18.737Z,100282.78
2023-03-14T03:37:45.531Z,100270.84
2023-03-14T03:40:12.492Z,100261.78
2023-03-14T03:42:39.362Z,100266.81
2023-03-14T03:45:07.089Z,100256.66
2023-03-14T03:47:33.872Z,100272.56
2023-03-14T03:50:00.614Z,100290.03
2023-03-14T03:52:27.340Z,100322.34
2023-03-14T03:54:54.054Z,100346.63
2023-03-14T03:57:21.206Z,100353.66
2023-03-14T03:59:47.984Z,100376.97
2023-03-14T04:02:14.719Z,100387.47
2023-03-14T04:04:41.656Z,100388.22
2023-03-14T04:07:08.740Z,100398.53
2023-03-14T04:09:35.466Z,100388.31
2023-03-14T04:12:02.207Z,100391.88
2023-03-14T04:14:29.804Z,100399.56
2023-03-14T04:16:56.604Z,100409.97
2023-03-14T04:19:23.329Z,100420.59
2023-03-14T04:21:50.063Z,100420.56
2023-03-14T04:24:16.814Z,100426.34
2023-03-14T04:26:43.641Z,100435.13
2023-03-14T04:29:12.180Z,100440.63
2023-03-14T04:31:40.049Z,100449.75
2023-03-14T04:34:06.854Z,100451.22
2023-03-14T04:36:33.575Z,100452.31
2023-03-14T04:39:00.272Z,100458.56
2023-03-14T04:41:27.094Z,100466.59
2023-03-14T04:43:53.821Z,100483.25
2023-03-14T04:46:20.554Z,100487.03
2023-03-14T04:48:47.301Z,100505.28
2023-03-14T04:51:14.037Z,100510.59
2023-03-14T04:53:41.207Z,100486.25
2023-03-14T04:56:08.653Z,100520.31
2023-03-14T04:58:35.440Z,100528.25
2023-03-14T05:01:06.480Z,100524.75
2023-03-14T05:03:33.301Z,100530.41
2023-03-14T05:06:00.079Z,100541.78
2023-03-14T05:08:26.822Z,100538.50
2023-03-14T05:10:55.535Z,100542.13
2023-03-14T05:13:22.402Z,100551.97
2023-03-14T05:15:49.613Z,100551.22
2023-03-14T05:18:16.362Z,100556.50
2023-03-14T05:20:44.471Z,100558.44
2023-03-14T05:23:11.547Z,100576.53
2023-03-14T05:25:38.489Z,100572.38
2023-03-14T05:28:05.382Z,100578.53
2023-03-14T05:30:33.397Z,100582.00
2023-03-14T05:33:00.291Z,100579.56
2023-03-14T05:35:27.079Z,100581.34
2023-03-14T05:37:53.819Z,100585.81
2023-03-14T05:40:20.562Z,100594.56
2023-03-14T05:42:47.286Z,100606.84
2023-03-14T05:45:14.008Z,100624.22
2023-03-14T05:47:40.892Z,100621.75
2023-03-14T05:50:08.014Z,100629.44
2023-03-14T05:52:34.734Z,100632.00
2023-03-14T05:55:01.497Z,100631.06
2023-03-14T05:57:28.225Z,100646.41
2023-03-14T05:59:54.945Z,100641.31
2023-03-14T06:02:21.753Z,100649.94
2023-03-14T06:04:48.583Z,100649.91
2023-03-14T06:07:15.305Z,100654.44
2023-03-14T06:09:42.062Z,100650.16
2023-03-14T06:12:08.835Z,100662.25
2023-03-14T06:14:35.567Z,100676.97
2023-03-14T06:17:02.316Z,100694.94
2023-03-14T06:19:29.145Z,100703.94
2023-03-14T06:21:55.876Z,100713.34
2023-03-14T06:24:22.625Z,100724.47
2023-03-14T06:26:49.369Z,100727.06
2023-03-14T06:29:16.131Z,100732.97
2023-03-14T06:31:42.939Z,100718.31
2023-03-14T06:34:09.770Z,100741.44
2023-03-14T06:36:36.519Z,100742.94
2023-03-14T06:39:03.557Z,100740.19
2023-03-14T06:41:30.364Z,100734.06
2023-03-14T06:43:57.152Z,100747.69
2023-03-14T06:46:24.165Z,100752.69
2023-03-14T06:48:51.041Z,100755.97
2023-03-14T06:51:17.847Z,100766.94
2023-03-14T06:53:44.648Z,100770.81
2023-03-14T06:56:11.812Z,100769.66
2023-03-14T06:58:38.635Z,100763.53
2023-03-14T07:01:05.959Z,100771.16
2023-03-14T07:03:32.802Z,100776.19
2023-03-14T07:06:00.264Z,100783.78
2023-03-14T07:08:26.999Z,100788.97
2023-03-14T07:10:53.782Z,100795.91
2023-03-14T07:13:20.604Z,100788.88
2023-03-14T07:15:47.440Z,100797.38
2023-03-14T07:18:14.193Z,100802.31
2023-03-14T07:20:41.121Z,100798.66
2023-03-14T07:23:07.964Z,100815.66
2023-03-14T07:25:34.691Z,100818.91
2023-03-14T07:28:01.435Z,100816.97
2023-03-14T07:30:28.204Z,100817.72
2023-03-14T07:32:55.061Z,100818.44
2023-03-14T07:35:21.937Z,100827.97
2023-03-14T07:37:48.680Z,100830.63
2023-03-14T07:40:16.393Z,100831.47
2023-03-14T07:42:44.124Z,100835.72
2023-03-14T07:45:12.504Z,100845.97
2023-03-14T07:47:39.661Z,100846.91
2023-03-14T07:50:07.157Z,100852.78
2023-03-14T07:52:34.046Z,100850.91
2023-03-14T07:55:01.242Z,100855.03
2023-03-14T07:57:27.958Z,100858.28
2023-03-14T07:59:54.675Z,100857.72
2023-03-14T08:02:23.692Z,100868.13
2023-03-14T08:04:50.812Z,100869.38
2023-03-14T08:07:17.781Z,100877.09
2023-03-14T08:09:44.596Z,100880.59
2023-03-14T08:12:11.730Z,100879.75
2023-03-14T08:14:38.530Z,100875.41
2023-03-14T08:17:06.263Z,100871.16
2023-03-14T08:19:32.979Z,100890.00
2023-03-14T08:21:59.747Z,100896.88
2023-03-14T08:24:26.647Z,100898.97
2023-03-14T08:26:53.437Z,100903.53
2023-03-14T08:29:20.330Z,100907.19
2023-03-14T08:31:47.220Z,100906.78
2023-03-14T08:34:14.064Z,100916.88
2023-03-14T08:36:41.082Z,100916.53
2023-03-14T08:39:08.717Z,100915.09
2023-03-14T08:41:42.273Z,100909.09
2023-03-14T08:44:10.204Z,100916.72
2023-03-14T08:46:37.038Z,100913.63
2023-03-14T08:49:04.082Z,100920.03
2023-03-14T08:51:30.842Z,100923.34
2023-03-14T08:53:57.615Z,100926.78
2023-03-14T08:56:26.022Z,100937.94
2023-03-14T08:58:52.877Z,100940.94
2023-03-14T09:01:20.515Z,100943.47
2023-03-14T09:03:49.351Z,100943.84
2023-03-14T09:06:19.008Z,100942.78
2023-03-14T09:08:46.641Z,100959.41
2023-03-14T09:11:14.100Z,100957.19
2023-03-14T09:13:41.443Z,100961.13
2023-03-14T09:16:09.033Z,100972.16
2023-03-14T09:18:36.463Z,100991.72
2023-03-14T09:21:03.343Z,100995.16
2023-03-14T09:23:30.045Z,101010.38
2023-03-14T09:25:58.039Z,101018.03
2023-03-14T09:28:25.295Z,101025.88
2023-03-14T09:30:52.490Z,101015.25
2023-03-14T09:33:19.362Z,101018.13
2023-03-14T09:35:46.167Z,101004.25
2023-03-14T09:38:12.932Z,101011.47
2023-03-14T09:40:40.148Z,101003.66
2023-03-14T09:43:07.287Z,101001.81
2023-03-14T09:45:41.449Z,100998.75
2023-03-14T09:48:16.597Z,101003.03
2023-03-14T09:50:47.949Z,101003.59
2023-03-14T09:53:17.808Z,101007.06
2023-03-14T09:55:47.187Z,101017.06
2023-03-14T09:58:19.125Z,101016.63
2023-03-14T10:00:46.038Z,101004.38
2023-03-14T10:03:12.673Z,101016.63
2023-03-14T10:05:41.456Z,101016.97
2023-03-14T10:08:11.828Z,101023.78
2023-03-14T10:10:39.035Z,101019.56
2023-03-14T10:13:17.674Z,101018.75
2023-03-14T10:16:11.256Z,101018.53
2023-03-14T10:18:38.045Z,101011.19
2023-03-14T10:21:12.201Z,101018.22
2023-03-14T10:23:39.871Z,101019.88
2023-03-14T10:26:15.266Z,101021.16
2023-03-14T10:28:46.295Z,101020.97
2023-03-14T10:31:13.593Z,101011.47
2023-03-14T10:33:40.759Z,101016.72
2023-03-14T10:36:22.169Z,101012.75
2023-03-14T10:38:48.796Z,101017.09
2023-03-14T10:41:31.774Z,101027.31
2023-03-14T10:44:01.157Z,101027.59
2023-03-14T10:46:32.294Z,101026.97
2023-03-14T10:48:59.128Z,101029.59
2023-03-14T10:51:30.907Z,101028.88
2023-03-14T10:54:13.960Z,101017.50
2023-03-14T10:56:40.743Z,101018.66
2023-03-14T10:59:16.844Z,101022.44
2023-03-14T11:02:17.307Z,101013.47
2023-03-14T11:05:08.617Z,101014.25
2023-03-14T11:07:43.912Z,101024.75
2023-03-14T11:10:32.111Z,101025.06
2023-03-14T11:13:37.249Z,101027.97
2023-03-14T11:16:45.530Z,101022.91
2023-03-14T11:19:30.274Z,101028.72
2023-03-14T11:22:19.968Z,101022.97
2023-03-14T11:25:10.942Z,101029.13
2023-03-14T11:28:02.789Z,101028.09
2023-03-14T11:30:36.034Z,101031.81
2023-03-14T11:33:25.004Z,101026.53
2023-03-14T11:36:12.984Z,101009.66
2023-03-14T11:38:49.201Z,101017.13
2023-03-14T11:41:29.618Z,101020.41
2023-03-14T11:43:59.295Z,101027.88
2023-03-14T11:46:44.958Z,101035.28
2023-03-14T11:49:21.051Z,101012.41
2023-03-14T11:51:51.507Z,101019.50
2023-03-14T11:54:37.019Z,101022.09
2023-03-14T11:57:13.551Z,101006.25
2023-03-14T11:59:58.263Z,101006.66
2023-03-14T12:02:50.356Z,100994.50
2023-03-14T12:05:36.445Z,101001.88
2023-03-14T12:08:09.612Z,100999.31
2023-03-14T12:10:51.379Z,100993.06
2023-03-14T12:13:18.852Z,101001.47
2023-03-14T12:16:00.648Z,101002.53
2023-03-14T12:18:43.612Z,100999.91
2023-03-14T12:21:14.035Z,100998.88
2023-03-14T12:23:57.907Z,100995.66
2023-03-14T12:26:45.365Z,100996.78
2023-03-14T12:29:18.431Z,100989.34
2023-03-14T12:31:48.284Z,101016.50
2023-03-14T12:34:14.956Z,101056.16
2023-03-14T12:36:51.269Z,101074.50
2023-03-14T12:39:44.962Z,101078.72
2023-03-14T12:42:27.440Z,101069.34
2023-03-14T12:45:24.760Z,101079.69
2023-03-14T12:47:54.563Z,101087.34
2023-03-14T12:50:27.291Z,101077.03
2023-03-14T12:53:00.556Z,101086.47
2023-03-14T12:55:40.962Z,101089.63
2023-03-14T12:58:39.917Z,101079.56
2023-03-14T13:01:15.864Z,101091.50
2023-03-14T13:03:47.421Z,101090.00
2023-03-14T13:06:34.426Z,101078.63
2023-03-14T13:09:33.603Z,101078.34
2023-03-14T13:12:17.425Z,101076.91
2023-03-14T13:14:47.365Z,101077.75
2023-03-14T13:17:35.779Z,101074.50
2023-03-14T13:20:16.500Z,101074.31
2023-03-14T13:22:48.715Z,101063.94
2023-03-14T13:25:17.838Z,101068.31
2023-03-14T13:27:44.970Z,101069.03
2023-03-14T13:30:30.846Z,101056.28
2023-03-14T13:32:57.948Z,101048.25
2023-03-14T13:35:30.080Z,101058.16
2023-03-14T13:38:17.871Z,101064.13
2023-03-14T13:40:46.530Z,101056.59
2023-03-14T13:43:13.719Z,101062.31
2023-03-14T13:46:16.922Z,101074.59
2023-03-14T13:48:51.193Z,101063.34
2023-03-14T13:51:20.413Z,101062.66
2023-03-14T13:53:50.268Z,101065.13
2023-03-14T13:56:22.008Z,101055.31
2023-03-14T13:58:49.740Z,101059.53
2023-03-14T14:01:20.886Z,101065.81
2023-03-14T14:03:52.083Z,101066.31
2023-03-14T14:06:32.185Z,101062.75
2023-03-14T14:09:04.232Z,101079.34
2023-03-14T14:11:51.038Z,101085.19
2023-03-14T14:14:35.550Z,101084.44
2023-03-14T14:17:06.217Z,101096.63
2023-03-14T14:19:35.047Z,101094.03
2023-03-14T14:22:02.969Z,101097.59
2023-03-14T14:24:32.764Z,101102.88
2023-03-14T14:27:18.176Z,101098.13
2023-03-14T14:29:57.126Z,101094.44
2023-03-14T14:32:24.217Z,101097.34
2023-03-14T14:34:59.779Z,101098.31
2023-03-14T14:37:32.996Z,101087.88
2023-03-14T14:40:07.687Z,101093.59
2023-03-14T14:42:34.832Z,101094.50
2023-03-14T14:45:04.501Z,101098.84
2023-03-14T14:47:31.424Z,101104.88
2023-03-14T14:50:02.204Z,101106.56
2023-03-14T14:52:38.879Z,101111.72
2023-03-14T14:55:15.401Z,101112.59
2023-03-14T14:57:48.839Z,101123.59
2023-03-14T15:00:24.650Z,101121.88
2023-03-14T15:02:55.512Z,101140.66
2023-03-14T15:05:24.642Z,101149.13
2023-03-14T15:07:52.130Z,101163.41
2023-03-14T15:10:24.425Z,101164.34
2023-03-14T15:12:51.928Z,101160.22
2023-03-14T15:15:19.820Z,101166.03
2023-03-14T15:17:46.712Z,101165.03
2023-03-14T15:20:16.826Z,101169.22
2023-03-14T15:22:43.986Z,101166.97
2023-03-14T15:25:18.648Z,101156.69
2023-03-14T15:27:49.261Z,101171.88
2023-03-14T15:30:17.184Z,101169.84
2023-03-14T15:32:44.067Z,101167.03
2023-03-14T15:35:10.855Z,101169.13
2023-03-14T15:37:38.013Z,101168.03
2023-03-14T15:40:12.808Z,101182.31
2023-03-14T15:42:39.705Z,101181.94
2023-03-14T15:45:07.109Z,101184.84
2023-03-14T15:47:33.807Z,101183.63
2023-03-14T15:50:00.571Z,101180.22
2023-03-14T15:52:27.304Z,101190.09
2023-03-14T15:54:54.054Z,101200.38
2023-03-14T15:57:20.834Z,101190.97
2023-03-14T15:59:47.685Z,101197.25
2023-03-14T16:02:14.407Z,101196.72
2023-03-14T16:04:41.241Z,101195.81
2023-03-14T16:07:08.162Z,101192.03
2023-03-14T16:09:34.903Z,101189.34
2023-03-14T16:12:01.685Z,101200.47
2023-03-14T16:14:50.514Z,101196.22
2023-03-14T16:17:17.288Z,101195.31
2023-03-14T16:19:44.120Z,101207.47
2023-03-14T16:22:11.109Z,101197.66
2023-03-14T16:24:37.968Z,101196.19
2023-03-14T16:27:05.881Z,101199.16
2023-03-14T16:29:33.420Z,101202.38
2023-03-14T16:32:00.288Z,101203.22
2023-03-14T16:34:27.241Z,101204.28
2023-03-14T16:36:54.218Z,101204.34
2023-03-14T16:39:21.052Z,101202.56
2023-03-14T16:41:49.460Z,101209.59
2023-03-14T16:44:16.206Z,101217.25
2023-03-14T16:46:43.138Z,101208.78
2023-03-14T16:49:10.870Z,101212.94
2023-03-14T16:51:37.616Z,101213.56
2023-03-14T16:54:04.548Z,101214.97
2023-03-14T16:56:31.277Z,101225.94
2023-03-14T16:58:58.002Z,101225.84
2023-03-14T17:01:24.790Z,101226.97
2023-03-14T17:03:52.312Z,101228.91
2023-03-14T17:06:25.250Z,101235.00
2023-03-14T17:08:53.303Z,101237.69
2023-03-14T17:11:20.285Z,101232.41
2023-03-14T17:13:47.061Z,101231.78
2023-03-14T17:16:14.041Z,101239.06
2023-03-14T17:18:40.886Z,101248.91
2023-03-14T17:21:08.282Z,101252.22
2023-03-14T17:23:35.905Z,101251.53
2023-03-14T17:26:02.907Z,101256.63
2023-03-14T17:28:29.725Z,101259.59
2023-03-14T17:31:18.088Z,101265.69
2023-03-14T17:33:45.814Z,101260.44
2023-03-14T17:36:13.346Z,101266.50
2023-03-14T17:38:40.661Z,101275.69
2023-03-14T17:41:12.823Z,101275.56
2023-03-14T17:43:42.172Z,101278.78
2023-03-14T17:46:14.934Z,101282.50
2023-03-14T17:48:43.363Z,101291.66
2023-03-14T17:51:10.498Z,101289.81
2023-03-14T17:53:37.373Z,101289.09
2023-03-14T17:56:04.308Z,101297.44
2023-03-14T17:58:34.454Z,101302.38
2023-03-14T18:01:19.083Z,101305.81
2023-03-14T18:03:46.408Z,101305.16
2023-03-14T18:06:14.979Z,101311.66
2023-03-14T18:08:43.986Z,101311.16
2023-03-14T18:11:11.897Z,101326.09
2023-03-14T18:13:39.990Z,101327.81
2023-03-14T18:16:07.831Z,101332.06
2023-03-14T18:18:35.073Z,101333.31
2023-03-14T18:21:01.915Z,101344.25
2023-03-14T18:23:28.701Z,101343.78
2023-03-14T18:25:55.398Z,101351.13
2023-03-14T18:28:23.225Z,101353.28
2023-03-14T18:30:52.307Z,101357.16
2023-03-14T18:33:22.559Z,101364.97
2023-03-14T18:35:52.163Z,101360.22
2023-03-14T18:38:19.789Z,101359.53
2023-03-14T18:40:46.515Z,101366.06
2023-03-14T18:43:13.290Z,101365.34
2023-03-14T18:45:40.076Z,101370.78
2023-03-14T18:48:06.964Z,101376.13
2023-03-14T18:50:33.760Z,101376.41
2023-03-14T18:53:01.870Z,101381.03
2023-03-14T18:55:28.809Z,101376.91
2023-03-14T18:57:55.539Z,101385.00
2023-03-14T19:00:22.546Z,101390.50
2023-03-14T19:02:50.582Z,101393.22
2023-03-14T19:05:17.442Z,101397.09
2023-03-14T19:07:44.214Z,101391.56
2023-03-14T19:10:11.687Z,101395.66
2023-03-14T19:12:38.615Z,101373.75
2023-03-14T19:15:06.002Z,101394.72
2023-03-14T19:17:33.586Z,101392.47
2023-03-14T19:20:00.362Z,101395.78
2023-03-14T19:22:27.118Z,101397.66
2023-03-14T19:24:55.992Z,101402.63
2023-03-14T19:27:22.846Z,101398.47
2023-03-14T19:29:49.622Z,101402.09
2023-03-14T19:32:18.719Z,101406.06
2023-03-14T19:34:45.484Z,101402.03
2023-03-14T19:37:12.559Z,101395.34
2023-03-14T19:39:39.393Z,101395.31
2023-03-14T19:42:06.182Z,101396.16
2023-03-14T19:44:32.964Z,101397.88
2023-03-14T19:46:59.712Z,101397.97
2023-03-14T19:49:27.593Z,101394.63
2023-03-14T19:51:54.380Z,101392.19
2023-03-14T19:54:22.579Z,101391.44
2023-03-14T19:56:49.510Z,101392.53
2023-03-14T19:59:16.395Z,101391.78
2023-03-14T20:01:47.167Z,101397.66
2023-03-14T20:04:14.776Z,101400.34
2023-03-14T20:06:44.778Z,101390.94
2023-03-14T20:09:11.601Z,101395.38
2023-03-14T20:11:41.153Z,101398.03
2023-03-14T20:14:08.768Z,101393.66
2023-03-14T20:16:37.663Z,101410.16
2023-03-14T20:19:06.580Z,101408.53
2023-03-14T20:21:33.899Z,101415.00
2023-03-14T20:24:01.293Z,101407.44
2023-03-14T20:26:28.373Z,101409.31
2023-03-14T20:28:55.488Z,101412.88
2023-03-14T20:31:22.626Z,101409.44
2023-03-14T20:33:51.402Z,101414.69
2023-03-14T20:36:18.543Z,101418.19
2023-03-14T20:38:45.324Z,101416.53
2023-03-14T20:41:12.232Z,101407.59
2023-03-14T20:43:39.437Z,101414.38
2023-03-14T20:46:06.364Z,101415.22
2023-03-14T20:48:33.540Z,101422.19
2023-03-14T20:51:01.705Z,101419.44
2023-03-14T20:53:28.601Z,101417.78
2023-03-14T20:55:57.205Z,101421.09
2023-03-14T20:58:25.057Z,101421.94
2023-03-14T21:00:53.500Z,101426.41
2023-03-14T21:03:20.569Z,101424.94
2023-03-14T21:05:48.069Z,101423.25
2023-03-14T21:08:20.598Z,101422.25
2023-03-14T21:10:52.224Z,101426.53
2023-03-14T21:13:19.376Z,101431.84
2023-03-14T21:15:46.148Z,101435.44
2023-03-14T21:18:14.356Z,101433.75
2023-03-14T21:20:42.650Z,101438.13
2023-03-14T21:23:11.118Z,101444.25
2023-03-14T21:25:38.105Z,101445.94
2023-03-14T21:28:05.008Z,101446.84
2023-03-14T21:30:33.803Z,101443.38
2023-03-14T21:33:01.194Z,101446.19
2023-03-14T21:35:27.951Z,101446.28
2023-03-14T21:37:54.734Z,101440.31
2023-03-14T21:40:22.461Z,101423.44
2023-03-14T21:42:49.193Z,101449.28
2023-03-14T21:45:16.847Z,101453.69
2023-03-14T21:47:47.529Z,101452.03
2023-03-14T21:50:15.192Z,101451.94
2023-03-14T21:52:46.311Z,101453.69
2023-03-14T21:55:17.698Z,101443.25
2023-03-14T21:57:49.056Z,101450.22
2023-03-14T22:00:19.876Z,101453.00
2023-03-14T22:02:58.417Z,101466.88
2023-03-14T22:05:35.300Z,101461.03
2023-03-14T22:08:02.094Z,101467.03
2023-03-14T22:10:28.876Z,101464.28
2023-03-14T22:12:57.826Z,101467.69
2023-03-14T22:15:24.688Z,101464.22
2023-03-14T22:17:51.421Z,101456.50
2023-03-14T22:20:18.283Z,101458.19
2023-03-14T22:22:45.008Z,101446.94
2023-03-14T22:25:11.718Z,101446.09
2023-03-14T22:27:38.636Z,101433.22
2023-03-14T22:30:05.766Z,101429.69
2023-03-14T22:32:32.522Z,101433.13
2023-03-14T22:34:59.275Z,101421.94
2023-03-14T22:37:26.080Z,101421.06
2023-03-14T22:39:52.821Z,101413.16
2023-03-14T22:42:19.778Z,101411.44
2023-03-14T22:44:46.608Z,101420.00
2023-03-14T22:47:13.373Z,101418.19
2023-03-14T22:49:40.214Z,101425.91
2023-03-14T22:52:07.009Z,101431.91
2023-03-14T22:54:33.928Z,101432.53
2023-03-14T22:57:00.709Z,101425.69
2023-03-14T22:59:27.630Z,101417.81
2023-03-14T23:01:54.383Z,101413.53
2023-03-14T23:04:21.197Z,101421.34
2023-03-14T23:06:47.911Z,101424.88
2023-03-14T23:09:14.840Z,101428.44
2023-03-14T23:11:41.822Z,101422.63
2023-03-14T23:14:08.632Z,101428.75
2023-03-14T23:16:40.609Z,101422.59
2023-03-14T23:19:09.910Z,101431.78
2023-03-14T23:21:37.101Z,101422.16
2023-03-14T23:24:05.938Z,101424.66
2023-03-14T23:26:35.743Z,101424.44
2023-03-14T23:29:07.390Z,101420.16
2023-03-14T23:31:34.559Z,101426.13
2023-03-14T23:34:01.398Z,101436.53
2023-03-14T23:36:28.130Z,101443.56
2023-03-14T23:38:54.889Z,101448.03
2023-03-14T23:41:21.998Z,101453.25
2023-03-14T23:43:49.235Z,101458.34
2023-03-14T23:46:16.649Z,101451.47
2023-03-14T23:48:47.094Z,101461.03
2023-03-14T23:51:15.003Z,101456.00
2023-03-14T23:53:42.658Z,101455.97
2023-03-14T23:56:11.788Z,101455.06
2023-03-14T23:58:39.664Z,101456.00
